Time;durP1;ratioP1;P1;durP2;ratioP2;P2;SDS_P1;SDS_P2;PMS_P1;PMS_P2;Temp;Humidity;BMP_temperature;BMP_pressure;BME280_temperature;BME280_humidity;BME280_pressure;Samples;Min_cycle;Max_cycle;Signal;HPM_P1;HPM_P2
2023/09/09 00:02:26;;;;;;;10.73;2.90;;;41.00;43.90;;;;;;5025657;28;20080;-67
2023/09/09 00:04:54;;;;;;;16.80;3.30;;;40.90;43.20;;;;;;5032285;28;20017;-67
2023/09/09 00:07:20;;;;;;;18.42;3.08;;;40.90;44.10;;;;;;5031925;28;20396;-69
2023/09/09 00:09:47;;;;;;;23.10;3.22;;;40.80;43.70;;;;;;5030502;28;20009;-69
2023/09/09 00:12:13;;;;;;;20.58;3.58;;;40.70;44.20;;;;;;5032781;28;20014;-69
2023/09/09 00:14:40;;;;;;;17.40;3.65;;;40.70;44.30;;;;;;5029770;28;20511;-67
2023/09/09 00:17:07;;;;;;;21.25;3.05;;;40.70;43.90;;;;;;5031230;28;20149;-69
2023/09/09 00:19:34;;;;;;;23.15;3.15;;;40.70;44.20;;;;;;5026544;28;20018;-68
2023/09/09 00:22:00;;;;;;;15.48;3.38;;;40.70;43.60;;;;;;5028767;28;20729;-67
2023/09/09 00:24:27;;;;;;;13.18;3.13;;;40.60;43.30;;;;;;5033595;28;20017;-66
2023/09/09 00:26:55;;;;;;;17.02;3.42;;;40.70;43.60;;;;;;5034090;28;20013;-67
2023/09/09 00:29:21;;;;;;;19.75;3.33;;;40.60;43.80;;;;;;5036027;28;20028;-66
2023/09/09 00:31:49;;;;;;;16.48;3.85;;;40.60;43.60;;;;;;5037731;28;20056;-67
2023/09/09 00:34:16;;;;;;;11.38;3.15;;;40.50;44.10;;;;;;5031906;28;20051;-68
2023/09/09 00:36:42;;;;;;;14.70;3.00;;;40.50;44.60;;;;;;5032529;28;20134;-69
2023/09/09 00:39:08;;;;;;;13.07;3.13;;;40.40;45.50;;;;;;5029623;28;20017;-69
2023/09/09 00:41:35;;;;;;;16.60;3.10;;;40.30;46.20;;;;;;5032193;28;20022;-64
2023/09/09 00:44:01;;;;;;;9.30;3.35;;;40.30;46.70;;;;;;5022764;28;20116;-67
2023/09/09 00:46:28;;;;;;;13.18;3.22;;;40.10;47.10;;;;;;5031892;28;20469;-67
2023/09/09 00:48:54;;;;;;;13.55;3.15;;;40.00;46.50;;;;;;5028011;28;20033;-66
2023/09/09 00:51:21;;;;;;;15.10;2.90;;;40.00;47.50;;;;;;5027037;28;20445;-65
2023/09/09 00:53:47;;;;;;;9.82;2.70;;;39.80;47.40;;;;;;5027670;28;20018;-67
2023/09/09 00:56:13;;;;;;;15.15;2.97;;;39.70;47.30;;;;;;5028822;28;20017;-67
2023/09/09 00:58:40;;;;;;;25.48;3.42;;;39.60;47.20;;;;;;5031510;28;20060;-65
2023/09/09 01:01:06;;;;;;;9.70;2.95;;;39.50;47.20;;;;;;5032838;28;20045;-66
2023/09/09 01:03:33;;;;;;;16.10;3.50;;;39.50;47.60;;;;;;5027169;28;20021;-65
2023/09/09 01:06:01;;;;;;;16.38;5.88;;;39.40;47.80;;;;;;5027110;28;21480;-66
2023/09/09 01:08:28;;;;;;;15.95;6.45;;;39.30;48.00;;;;;;5044845;28;20018;-66
2023/09/09 01:10:56;;;;;;;17.33;7.05;;;39.30;48.60;;;;;;5036394;28;20064;-66
2023/09/09 01:13:23;;;;;;;17.85;4.80;;;39.20;48.10;;;;;;5033516;28;20025;-67
2023/09/09 01:15:51;;;;;;;19.08;4.97;;;39.10;48.10;;;;;;5027035;28;20054;-65
2023/09/09 01:18:21;;;;;;;14.00;3.50;;;39.10;48.40;;;;;;5027818;28;20147;-70
2023/09/09 01:20:59;;;;;;;15.57;3.47;;;39.00;48.80;;;;;;5025512;28;20021;-67
2023/09/09 01:23:26;;;;;;;18.13;3.55;;;39.00;48.50;;;;;;5033203;28;20032;-65
2023/09/09 01:25:52;;;;;;;20.88;3.20;;;38.90;48.70;;;;;;5029549;28;20009;-67
2023/09/09 01:28:22;;;;;;;15.75;3.20;;;38.80;48.70;;;;;;5027393;28;20014;-65
2023/09/09 01:30:49;;;;;;;17.13;2.97;;;38.80;48.70;;;;;;5025137;28;20017;-68
2023/09/09 01:33:16;;;;;;;13.18;3.97;;;38.70;49.00;;;;;;5028189;28;20100;-65
2023/09/09 01:35:43;;;;;;;20.13;3.20;;;38.70;49.20;;;;;;5027866;28;20053;-70
2023/09/09 01:38:10;;;;;;;11.82;3.38;;;38.60;48.90;;;;;;5027179;28;20025;-69
2023/09/09 01:40:36;;;;;;;19.55;3.50;;;38.60;49.10;;;;;;5041278;28;20025;-69
2023/09/09 01:43:05;;;;;;;10.95;3.42;;;38.50;49.40;;;;;;5025914;28;20072;-65
2023/09/09 01:45:31;;;;;;;19.30;3.42;;;38.40;49.40;;;;;;5029322;28;20025;-68
2023/09/09 01:47:58;;;;;;;16.05;3.38;;;38.50;49.70;;;;;;5031265;28;20021;-65
2023/09/09 01:50:24;;;;;;;21.33;3.35;;;38.40;49.70;;;;;;5028745;28;20017;-63
2023/09/09 01:52:51;;;;;;;10.70;2.45;;;38.30;49.50;;;;;;5031507;28;20013;-64
2023/09/09 01:55:17;;;;;;;18.83;3.65;;;38.30;49.80;;;;;;5027055;28;20070;-65
2023/09/09 01:57:44;;;;;;;18.73;3.53;;;38.20;50.00;;;;;;5027321;28;20420;-63
2023/09/09 02:00:11;;;;;;;18.95;3.78;;;38.20;50.10;;;;;;5029876;28;20812;-65
2023/09/09 02:02:38;;;;;;;24.83;4.15;;;38.10;50.50;;;;;;5026446;28;20020;-66
2023/09/09 02:05:04;;;;;;;27.40;4.28;;;38.10;50.10;;;;;;5027345;28;20557;-66
2023/09/09 02:07:31;;;;;;;36.38;4.80;;;38.00;50.00;;;;;;5027454;28;20406;-65
2023/09/09 02:09:57;;;;;;;23.98;5.22;;;38.00;50.20;;;;;;5029425;28;20408;-67
2023/09/09 02:12:24;;;;;;;30.42;5.03;;;38.00;50.30;;;;;;5026801;28;21198;-68
2023/09/09 02:14:50;;;;;;;22.50;4.82;;;38.00;50.60;;;;;;5023687;28;20036;-66
2023/09/09 02:17:17;;;;;;;28.60;5.00;;;37.80;50.90;;;;;;5022310;28;20030;-64
2023/09/09 02:19:43;;;;;;;26.73;5.45;;;37.80;51.20;;;;;;5021430;28;20022;-66
2023/09/09 02:22:10;;;;;;;35.67;6.00;;;37.70;51.10;;;;;;5023389;28;20513;-67
2023/09/09 02:24:36;;;;;;;35.55;6.97;;;37.70;50.90;;;;;;5025151;28;20014;-68
2023/09/09 02:27:03;;;;;;;35.50;6.35;;;37.60;51.20;;;;;;5024362;28;20538;-68
2023/09/09 02:29:29;;;;;;;34.70;6.35;;;37.60;51.20;;;;;;5022298;28;20013;-65
2023/09/09 02:31:56;;;;;;;48.70;7.28;;;37.60;51.40;;;;;;5026751;28;20021;-66
2023/09/09 02:34:22;;;;;;;64.40;7.55;;;37.60;51.50;;;;;;5021515;28;20068;-67
2023/09/09 02:37:20;;;;;;;44.70;6.57;;;37.50;51.30;;;;;;5026930;28;20079;-65
2023/09/09 02:39:48;;;;;;;61.33;7.70;;;37.40;51.70;;;;;;5023344;28;20096;-65
2023/09/09 02:42:17;;;;;;;50.88;7.13;;;37.40;51.60;;;;;;5022749;28;20026;-63
2023/09/09 02:44:44;;;;;;;47.00;6.82;;;37.30;51.90;;;;;;5025499;28;20017;-66
2023/09/09 02:47:12;;;;;;;51.80;6.95;;;37.20;51.70;;;;;;5025498;28;20469;-62
2023/09/09 02:49:40;;;;;;;46.35;6.80;;;37.20;51.80;;;;;;5032014;28;20015;-66
2023/09/09 02:52:07;;;;;;;52.72;6.97;;;37.10;51.70;;;;;;5028446;28;20367;-63
2023/09/09 02:54:38;;;;;;;50.63;7.63;;;37.00;51.90;;;;;;5030293;28;20411;-64
2023/09/09 02:57:05;;;;;;;48.65;9.20;;;37.00;52.00;;;;;;5030013;28;20078;-67
2023/09/09 02:59:35;;;;;;;77.93;11.82;;;36.90;52.00;;;;;;5026037;28;20025;-65
2023/09/09 03:02:02;;;;;;;66.82;12.10;;;36.90;52.20;;;;;;5026623;28;20033;-67
2023/09/09 03:04:28;;;;;;;73.10;11.98;;;36.80;52.30;;;;;;5033328;28;20045;-66
2023/09/09 03:06:55;;;;;;;77.90;9.07;;;36.80;52.50;;;;;;5032133;28;20025;-63
2023/09/09 03:09:22;;;;;;;73.88;7.75;;;36.70;52.30;;;;;;5026644;28;20025;-67
2023/09/09 03:11:48;;;;;;;67.28;8.20;;;36.70;52.00;;;;;;5031303;28;20018;-66
2023/09/09 03:14:14;;;;;;;45.80;7.90;;;36.70;51.90;;;;;;5034093;28;20020;-67
2023/09/09 03:16:41;;;;;;;38.58;7.72;;;36.70;51.80;;;;;;5030406;28;20014;-66
2023/09/09 03:19:07;;;;;;;44.25;7.07;;;36.70;52.20;;;;;;5036355;28;20485;-68
2023/09/09 03:21:34;;;;;;;44.35;7.35;;;36.70;52.50;;;;;;5028924;28;20227;-65
2023/09/09 03:24:00;;;;;;;49.58;7.50;;;36.70;52.60;;;;;;5029400;28;20504;-65
2023/09/09 03:26:27;;;;;;;48.33;7.63;;;36.60;52.70;;;;;;5029461;28;20018;-68
2023/09/09 03:28:53;;;;;;;49.95;6.93;;;36.60;52.60;;;;;;5027600;28;20025;-69
2023/09/09 03:31:19;;;;;;;29.77;6.90;;;36.60;52.30;;;;;;5032640;28;20087;-63
2023/09/09 03:33:46;;;;;;;42.95;6.80;;;36.60;52.70;;;;;;5029167;28;20021;-68
2023/09/09 03:36:12;;;;;;;27.30;6.72;;;36.50;52.10;;;;;;5027530;28;20022;-65
2023/09/09 03:38:41;;;;;;;33.47;6.85;;;36.50;52.50;;;;;;5030924;28;20017;-67
2023/09/09 03:41:07;;;;;;;26.27;6.38;;;36.40;52.90;;;;;;5035676;28;20104;-67
2023/09/09 03:43:37;;;;;;;37.58;6.55;;;36.40;53.20;;;;;;5028735;28;20049;-66
2023/09/09 03:46:04;;;;;;;40.83;7.47;;;36.30;53.40;;;;;;5029270;28;20014;-67
2023/09/09 03:48:31;;;;;;;30.33;6.28;;;36.30;53.60;;;;;;5029912;28;20110;-65
2023/09/09 03:51:01;;;;;;;31.85;7.13;;;36.20;53.20;;;;;;5028752;28;20022;-67
2023/09/09 03:53:29;;;;;;;33.42;6.57;;;36.20;53.60;;;;;;5028934;28;20009;-68
2023/09/09 03:55:58;;;;;;;50.85;6.82;;;36.20;53.80;;;;;;5029330;28;20108;-65
2023/09/09 03:58:25;;;;;;;46.72;6.82;;;36.10;53.50;;;;;;5029386;28;20473;-65
2023/09/09 04:01:04;;;;;;;32.75;5.60;;;36.10;53.80;;;;;;5028670;28;20021;-67
2023/09/09 04:03:33;;;;;;;28.60;6.15;;;36.00;53.70;;;;;;5028444;28;20044;-64
2023/09/09 04:06:05;;;;;;;31.55;6.00;;;36.00;54.40;;;;;;5028263;28;20504;-69
2023/09/09 04:08:33;;;;;;;31.23;5.25;;;35.90;54.10;;;;;;5034026;28;20021;-64
2023/09/09 04:11:00;;;;;;;36.47;5.88;;;35.90;53.90;;;;;;5028763;28;20028;-67
2023/09/09 04:13:27;;;;;;;26.23;5.43;;;35.80;53.90;;;;;;5032541;28;20025;-69
2023/09/09 04:15:55;;;;;;;33.42;5.90;;;35.70;53.80;;;;;;5032868;28;20014;-68
2023/09/09 04:18:21;;;;;;;34.88;5.70;;;35.70;54.10;;;;;;5028938;28;20029;-68
2023/09/09 04:20:48;;;;;;;29.50;6.78;;;35.70;54.40;;;;;;5035568;28;20019;-70
2023/09/09 04:23:14;;;;;;;42.03;7.15;;;35.70;54.90;;;;;;5034717;28;20047;-60
2023/09/09 04:25:41;;;;;;;38.40;6.55;;;35.60;55.10;;;;;;5033793;28;20020;-66
2023/09/09 04:28:11;;;;;;;26.88;6.60;;;35.70;55.70;;;;;;5030704;28;20049;-65
2023/09/09 04:30:38;;;;;;;28.92;6.53;;;35.80;55.50;;;;;;5052777;28;20021;-65
2023/09/09 04:33:12;;;;;;;48.22;7.53;;;35.80;55.60;;;;;;5028868;28;20049;-64
2023/09/09 04:35:42;;;;;;;50.47;8.40;;;35.80;55.60;;;;;;5032795;28;20014;-65
2023/09/09 04:38:09;;;;;;;47.72;7.70;;;35.80;55.80;;;;;;5043993;28;20382;-63
2023/09/09 04:40:38;;;;;;;47.20;7.78;;;35.80;55.70;;;;;;5033132;28;20381;-64
2023/09/09 04:43:05;;;;;;;49.42;9.13;;;35.80;55.60;;;;;;5049974;28;20034;-64
2023/09/09 04:45:31;;;;;;;40.85;9.43;;;35.80;55.40;;;;;;5028386;28;20018;-63
2023/09/09 04:47:58;;;;;;;67.10;9.10;;;35.80;55.30;;;;;;5028111;28;20013;-65
2023/09/09 04:50:24;;;;;;;48.03;8.65;;;35.80;55.10;;;;;;5031379;28;20059;-60
2023/09/09 04:52:50;;;;;;;36.22;7.72;;;35.80;54.50;;;;;;5029493;28;20334;-63
2023/09/09 04:55:17;;;;;;;35.67;8.20;;;35.80;54.50;;;;;;5028780;28;20496;-65
2023/09/09 04:57:43;;;;;;;34.75;7.95;;;35.80;54.50;;;;;;5026664;28;20026;-66
2023/09/09 05:00:10;;;;;;;30.15;6.78;;;35.80;54.40;;;;;;5030088;28;20037;-63
2023/09/09 05:02:38;;;;;;;21.58;5.97;;;35.80;54.10;;;;;;5028318;28;20377;-65
2023/09/09 05:05:06;;;;;;;28.17;5.97;;;35.80;53.20;;;;;;5029798;28;20048;-64
2023/09/09 05:07:34;;;;;;;21.08;6.00;;;35.70;53.30;;;;;;5029043;28;20045;-66
2023/09/09 05:10:04;;;;;;;23.95;5.68;;;35.70;52.90;;;;;;5030663;28;20028;-64
2023/09/09 05:12:36;;;;;;;20.80;5.70;;;35.70;52.70;;;;;;5030062;28;20029;-63
2023/09/09 05:15:06;;;;;;;26.05;9.23;;;35.70;52.30;;;;;;5028503;28;20016;-64
2023/09/09 05:17:33;;;;;;;37.05;10.65;;;35.70;51.80;;;;;;5032112;28;20100;-64
2023/09/09 05:19:59;;;;;;;39.85;10.68;;;35.70;52.20;;;;;;5026828;28;20021;-62
2023/09/09 05:22:26;;;;;;;37.45;11.25;;;35.70;51.90;;;;;;5028950;28;20037;-65
2023/09/09 05:24:52;;;;;;;36.55;9.77;;;35.70;51.70;;;;;;5028589;28;20100;-65
2023/09/09 05:27:18;;;;;;;53.33;9.52;;;35.70;51.70;;;;;;5029755;28;20097;-66
2023/09/09 05:29:46;;;;;;;27.15;9.48;;;35.70;52.20;;;;;;5027799;28;20067;-67
2023/09/09 05:32:12;;;;;;;44.17;8.55;;;35.60;51.80;;;;;;5027925;28;20020;-68
2023/09/09 05:34:39;;;;;;;36.50;9.05;;;35.60;51.80;;;;;;5030032;28;20472;-62
2023/09/09 05:37:05;;;;;;;45.03;10.57;;;35.60;53.00;;;;;;5033916;28;20028;-64
2023/09/09 05:39:32;;;;;;;33.13;9.38;;;35.60;52.90;;;;;;5028473;28;20017;-66
2023/09/09 05:41:58;;;;;;;40.95;9.70;;;35.50;53.20;;;;;;5035269;28;20180;-63
2023/09/09 05:44:25;;;;;;;36.08;10.07;;;35.40;52.80;;;;;;5026143;28;20541;-65
2023/09/09 05:46:51;;;;;;;31.13;9.43;;;35.40;53.10;;;;;;5029582;28;20060;-64
2023/09/09 05:49:18;;;;;;;45.85;11.05;;;35.40;53.30;;;;;;5051967;28;20105;-64
2023/09/09 05:51:44;;;;;;;31.38;9.90;;;35.40;53.10;;;;;;5029653;28;21317;-63
2023/09/09 05:54:11;;;;;;;44.70;9.48;;;35.40;53.10;;;;;;5030426;28;20159;-64
2023/09/09 05:56:37;;;;;;;37.05;8.75;;;35.40;52.70;;;;;;5034571;28;20393;-62
2023/09/09 05:59:07;;;;;;;33.92;8.15;;;35.30;52.70;;;;;;5031069;28;20029;-63
2023/09/09 06:01:34;;;;;;;33.22;6.53;;;35.30;52.40;;;;;;5028972;28;20021;-61
2023/09/09 06:04:00;;;;;;;32.53;6.53;;;35.40;52.20;;;;;;5029139;28;20118;-64
2023/09/09 06:06:27;;;;;;;20.35;6.32;;;35.40;52.00;;;;;;5032769;28;20431;-65
2023/09/09 06:08:54;;;;;;;18.38;5.03;;;35.50;51.80;;;;;;5034024;28;20010;-62
2023/09/09 06:11:20;;;;;;;17.17;5.43;;;35.50;52.20;;;;;;5034442;28;20464;-63
2023/09/09 06:13:47;;;;;;;21.75;6.05;;;35.50;52.00;;;;;;5029301;28;20780;-66
2023/09/09 06:16:13;;;;;;;22.35;6.78;;;35.50;52.10;;;;;;5032129;28;20044;-64
2023/09/09 06:18:40;;;;;;;27.17;7.80;;;35.50;51.80;;;;;;5027772;28;20025;-66
2023/09/09 06:21:06;;;;;;;20.92;6.53;;;35.50;51.60;;;;;;5033576;28;20025;-63
2023/09/09 06:23:33;;;;;;;20.42;6.38;;;35.50;51.50;;;;;;5029892;28;20029;-63
2023/09/09 06:25:59;;;;;;;20.15;6.05;;;35.50;51.60;;;;;;5030519;28;20100;-64
2023/09/09 06:28:26;;;;;;;16.20;6.07;;;35.50;51.30;;;;;;5026721;28;20377;-66
2023/09/09 06:30:52;;;;;;;20.25;5.75;;;35.50;51.70;;;;;;5030015;28;21607;-65
2023/09/09 06:33:20;;;;;;;20.23;4.95;;;35.50;51.50;;;;;;5027986;28;20024;-70
2023/09/09 06:35:50;;;;;;;15.50;4.30;;;35.50;51.80;;;;;;5023210;28;20041;-68
2023/09/09 06:38:17;;;;;;;31.83;13.32;;;35.50;51.50;;;;;;5035325;28;20071;-67
2023/09/09 06:40:45;;;;;;;23.30;13.20;;;35.50;51.60;;;;;;5032689;28;20021;-67
2023/09/09 06:43:13;;;;;;;21.55;9.75;;;35.40;51.60;;;;;;5035360;28;20914;-68
2023/09/09 06:45:40;;;;;;;6.65;3.72;;;35.40;51.60;;;;;;5035091;28;20014;-63
2023/09/09 06:48:06;;;;;;;12.75;3.80;;;35.40;51.70;;;;;;5044016;28;20016;-64
2023/09/09 06:50:33;;;;;;;8.70;3.50;;;35.30;51.90;;;;;;5037668;28;20481;-64
2023/09/09 06:52:59;;;;;;;12.63;3.00;;;35.20;51.70;;;;;;5032831;28;20211;-64
2023/09/09 06:55:26;;;;;;;13.02;3.60;;;35.20;51.50;;;;;;5033340;28;20085;-68
2023/09/09 06:57:52;;;;;;;8.73;3.15;;;35.20;52.30;;;;;;5034807;28;20101;-65
2023/09/09 07:00:18;;;;;;;5.68;3.10;;;35.10;52.10;;;;;;5034764;28;20525;-64
2023/09/09 07:02:45;;;;;;;7.07;3.08;;;35.10;52.80;;;;;;5032168;28;20025;-66
2023/09/09 07:05:17;;;;;;;8.18;2.60;;;35.00;52.40;;;;;;5035136;28;20017;-66
2023/09/09 07:07:43;;;;;;;6.47;3.38;;;34.90;52.50;;;;;;5035057;28;20543;-64
2023/09/09 07:10:10;;;;;;;8.45;3.33;;;34.90;52.80;;;;;;5033476;28;20176;-65
2023/09/09 07:12:37;;;;;;;5.40;3.00;;;34.80;52.90;;;;;;5042411;28;20571;-65
2023/09/09 07:15:03;;;;;;;7.53;3.10;;;34.70;53.80;;;;;;5038676;28;20009;-64
2023/09/09 07:17:30;;;;;;;9.90;2.67;;;34.70;52.90;;;;;;5034228;28;20020;-63
2023/09/09 07:19:56;;;;;;;9.05;3.45;;;34.60;52.90;;;;;;5035950;28;20087;-64
2023/09/09 07:22:23;;;;;;;5.70;3.15;;;34.60;53.10;;;;;;5037119;28;20035;-64
2023/09/09 07:24:49;;;;;;;7.30;2.45;;;34.50;53.10;;;;;;5033658;28;20028;-64
2023/09/09 07:27:16;;;;;;;7.75;3.80;;;34.50;53.40;;;;;;5035770;28;20126;-64
2023/09/09 07:29:42;;;;;;;5.88;3.10;;;34.40;53.40;;;;;;5032452;28;20017;-65
2023/09/09 07:32:09;;;;;;;7.28;3.42;;;34.40;54.00;;;;;;5033043;28;20070;-65
2023/09/09 07:34:35;;;;;;;5.80;2.80;;;34.30;53.50;;;;;;5041650;28;20086;-66
2023/09/09 07:37:02;;;;;;;12.23;3.63;;;34.30;53.50;;;;;;5049159;28;20493;-64
2023/09/09 07:39:28;;;;;;;10.55;3.10;;;34.30;53.90;;;;;;5040318;28;20142;-65
2023/09/09 07:41:54;;;;;;;9.25;2.83;;;34.20;54.10;;;;;;5039063;28;20111;-64
2023/09/09 07:44:21;;;;;;;8.70;3.05;;;34.10;54.20;;;;;;5041333;28;20527;-65
2023/09/09 07:46:47;;;;;;;6.13;2.78;;;34.10;54.70;;;;;;5036675;28;20013;-65
2023/09/09 07:49:13;;;;;;;4.88;2.92;;;34.00;54.70;;;;;;5039555;28;20504;-62
2023/09/09 07:51:40;;;;;;;7.70;2.85;;;33.90;54.80;;;;;;5035932;28;20021;-62
2023/09/09 07:54:07;;;;;;;8.73;2.95;;;33.90;54.40;;;;;;5032458;28;20021;-62
2023/09/09 07:56:33;;;;;;;6.57;3.15;;;33.90;55.10;;;;;;5029925;28;20088;-65
2023/09/09 07:59:00;;;;;;;10.50;3.40;;;33.90;55.40;;;;;;5042648;28;20017;-62
2023/09/09 08:01:26;;;;;;;6.85;2.83;;;33.80;54.70;;;;;;5030983;28;20018;-62
2023/09/09 08:03:52;;;;;;;7.47;2.80;;;33.80;54.70;;;;;;5030279;28;20029;-63
2023/09/09 08:06:19;;;;;;;7.05;2.72;;;33.80;55.10;;;;;;5033714;28;20013;-62
2023/09/09 08:08:47;;;;;;;7.70;2.70;;;33.70;54.30;;;;;;5031091;28;20018;-66
2023/09/09 08:11:14;;;;;;;5.68;2.90;;;33.70;54.00;;;;;;5031414;28;20029;-63
2023/09/09 08:13:41;;;;;;;8.55;2.75;;;33.70;54.60;;;;;;5035983;28;20092;-64
2023/09/09 08:16:08;;;;;;;6.65;2.92;;;33.60;54.50;;;;;;5035456;28;20032;-64
2023/09/09 08:18:34;;;;;;;7.78;3.13;;;33.60;54.70;;;;;;5033023;28;20053;-62
2023/09/09 08:21:03;;;;;;;10.30;2.90;;;33.50;54.90;;;;;;5030718;28;20039;-65
2023/09/09 08:23:29;;;;;;;10.68;2.92;;;33.50;54.70;;;;;;5027152;28;20064;-63
2023/09/09 08:25:56;;;;;;;4.55;2.80;;;33.50;54.70;;;;;;5031092;28;20068;-64
2023/09/09 08:28:22;;;;;;;6.13;2.78;;;33.50;54.40;;;;;;5033075;28;20207;-65
2023/09/09 08:30:49;;;;;;;11.75;3.42;;;33.50;54.30;;;;;;5029744;28;20713;-67
2023/09/09 08:33:15;;;;;;;5.15;2.80;;;33.50;54.10;;;;;;5031616;28;20014;-64
2023/09/09 08:35:41;;;;;;;9.05;3.00;;;33.50;54.20;;;;;;5034951;28;20445;-65
2023/09/09 08:38:08;;;;;;;4.90;2.80;;;33.50;53.90;;;;;;5030233;28;20362;-63
2023/09/09 08:40:45;;;;;;;6.15;2.70;;;33.50;53.80;;;;;;5032342;28;20033;-64
2023/09/09 08:43:17;;;;;;;6.65;2.63;;;33.50;53.60;;;;;;5037812;28;20083;-65
2023/09/09 08:46:19;;;;;;;7.97;2.85;;;33.50;53.60;;;;;;5034004;28;20496;-64
2023/09/09 08:48:48;;;;;;;10.52;3.03;;;33.60;53.50;;;;;;5034354;28;20508;-65
2023/09/09 08:51:16;;;;;;;7.28;2.95;;;33.60;53.90;;;;;;5030794;28;20406;-65
2023/09/09 08:53:44;;;;;;;6.03;3.08;;;33.60;53.90;;;;;;5031080;28;20013;-63
2023/09/09 08:56:14;;;;;;;7.47;2.88;;;33.60;53.90;;;;;;5033723;28;20091;-68
2023/09/09 08:58:40;;;;;;;8.35;2.70;;;33.60;54.10;;;;;;5031063;28;20016;-66
2023/09/09 09:01:07;;;;;;;10.55;2.60;;;33.50;53.70;;;;;;5039342;28;20025;-66
2023/09/09 09:03:34;;;;;;;11.23;2.63;;;33.50;54.10;;;;;;5036518;28;20018;-66
2023/09/09 09:06:05;;;;;;;5.60;2.63;;;33.50;54.40;;;;;;5028363;28;20014;-65
2023/09/09 09:08:32;;;;;;;8.73;2.85;;;33.50;53.80;;;;;;5033264;28;20108;-66
2023/09/09 09:10:59;;;;;;;8.07;3.08;;;33.50;53.90;;;;;;5030719;28;20088;-66
2023/09/09 09:13:26;;;;;;;4.55;2.85;;;33.50;54.10;;;;;;5028821;28;20092;-67
2023/09/09 09:15:52;;;;;;;11.50;3.00;;;33.50;54.50;;;;;;5026701;28;20028;-68
2023/09/09 09:18:18;;;;;;;5.90;2.80;;;33.50;54.50;;;;;;5031639;28;20017;-64
2023/09/09 09:20:45;;;;;;;6.40;2.75;;;33.40;54.30;;;;;;5048858;28;20076;-66
2023/09/09 09:23:14;;;;;;;10.70;2.80;;;33.40;54.70;;;;;;5030512;28;20492;-66
2023/09/09 09:25:45;;;;;;;7.82;2.65;;;33.40;54.70;;;;;;5028718;28;20076;-66
2023/09/09 09:28:14;;;;;;;10.38;2.72;;;33.30;54.90;;;;;;5031309;28;20053;-65
2023/09/09 09:30:41;;;;;;;8.50;3.00;;;33.30;55.50;;;;;;5027701;28;20037;-66
2023/09/09 09:33:07;;;;;;;8.15;2.88;;;33.30;55.40;;;;;;5031161;28;20096;-66
2023/09/09 09:35:37;;;;;;;5.03;2.53;;;33.20;55.30;;;;;;5027826;28;20020;-68
2023/09/09 09:38:09;;;;;;;7.63;2.90;;;33.20;56.30;;;;;;5033983;28;20072;-67
2023/09/09 09:40:38;;;;;;;5.32;3.20;;;33.10;55.50;;;;;;5033044;28;20024;-66
2023/09/09 09:43:05;;;;;;;7.57;2.83;;;33.10;55.30;;;;;;5028315;28;20056;-65
2023/09/09 09:45:31;;;;;;;13.40;2.92;;;33.10;55.30;;;;;;5033961;28;20346;-67
2023/09/09 09:47:59;;;;;;;8.18;2.85;;;33.10;55.10;;;;;;5033927;28;20010;-66
2023/09/09 09:50:30;;;;;;;7.60;2.97;;;33.10;56.10;;;;;;5028914;28;20545;-65
2023/09/09 09:52:59;;;;;;;7.95;2.70;;;33.10;55.70;;;;;;5030083;28;20031;-66
2023/09/09 09:55:27;;;;;;;7.90;2.90;;;33.10;55.40;;;;;;5028462;28;20043;-62
2023/09/09 09:58:02;;;;;;;7.70;2.95;;;33.10;55.50;;;;;;5029537;28;20032;-65
2023/09/09 10:00:29;;;;;;;13.17;2.80;;;33.10;55.20;;;;;;5027697;28;20562;-69
2023/09/09 10:02:57;;;;;;;8.57;2.90;;;33.10;55.00;;;;;;5026725;28;20020;-66
2023/09/09 10:05:28;;;;;;;6.55;2.50;;;33.10;55.00;;;;;;5030025;28;20013;-65
2023/09/09 10:08:09;;;;;;;8.98;2.78;;;33.10;54.70;;;;;;5030650;28;20060;-65
2023/09/09 10:10:37;;;;;;;7.82;2.47;;;33.20;54.80;;;;;;5032108;28;20093;-68
2023/09/09 10:13:40;;;;;;;10.32;2.90;;;33.20;55.00;;;;;;5037681;28;20452;-67
2023/09/09 10:16:08;;;;;;;6.22;2.75;;;33.10;54.80;;;;;;5036551;28;20090;-67
2023/09/09 10:18:37;;;;;;;9.02;3.00;;;33.20;55.00;;;;;;5026241;28;20052;-65
2023/09/09 10:21:09;;;;;;;11.25;3.55;;;33.20;54.90;;;;;;5032081;28;20087;-67
2023/09/09 10:23:37;;;;;;;12.40;3.03;;;33.10;55.10;;;;;;5032926;28;20036;-66
2023/09/09 10:26:04;;;;;;;5.20;2.20;;;33.10;55.10;;;;;;5031008;28;20009;-63
2023/09/09 10:28:32;;;;;;;5.38;2.25;;;33.10;55.30;;;;;;5031469;28;20547;-65
2023/09/09 10:31:00;;;;;;;6.07;2.47;;;33.10;55.10;;;;;;5027372;28;20021;-66
2023/09/09 10:33:29;;;;;;;8.13;2.65;;;33.10;55.20;;;;;;5027522;28;20017;-62
2023/09/09 10:35:58;;;;;;;5.78;2.47;;;33.10;55.30;;;;;;5031691;28;20021;-66
2023/09/09 10:38:26;;;;;;;5.05;2.30;;;33.00;55.40;;;;;;5026129;28;20025;-67
2023/09/09 10:40:53;;;;;;;12.07;2.50;;;33.00;55.60;;;;;;5026518;28;20032;-65
2023/09/09 10:43:19;;;;;;;4.93;2.30;;;33.00;55.60;;;;;;5027792;28;20026;-64
2023/09/09 10:45:47;;;;;;;8.90;2.80;;;33.10;55.90;;;;;;5026179;28;20081;-64
2023/09/09 10:48:14;;;;;;;7.10;2.47;;;33.00;55.90;;;;;;5027455;28;20063;-65
2023/09/09 10:50:45;;;;;;;4.28;2.42;;;33.00;56.10;;;;;;5026449;28;20029;-66
2023/09/09 10:53:27;;;;;;;8.15;2.65;;;33.00;56.60;;;;;;5027778;28;20071;-66
2023/09/09 10:56:17;;;;;;;5.75;2.65;;;32.90;56.60;;;;;;5037511;28;20028;-65
2023/09/09 10:58:47;;;;;;;4.85;2.30;;;32.90;56.70;;;;;;5024153;28;20091;-65
2023/09/09 11:01:26;;;;;;;5.55;2.65;;;32.90;56.80;;;;;;5032358;28;20028;-66
2023/09/09 11:03:53;;;;;;;7.78;2.50;;;32.90;57.50;;;;;;5025731;28;20444;-65
2023/09/09 11:06:31;;;;;;;5.45;2.80;;;32.80;57.60;;;;;;5036301;28;20121;-66
2023/09/09 11:09:02;;;;;;;5.85;3.05;;;32.80;57.50;;;;;;5026094;28;20006;-63
2023/09/09 11:11:35;;;;;;;4.95;2.47;;;32.70;57.90;;;;;;5028124;28;20021;-66
2023/09/09 11:14:03;;;;;;;4.35;2.50;;;32.70;58.50;;;;;;5028763;28;20021;-65
2023/09/09 11:16:41;;;;;;;5.90;2.72;;;32.70;58.80;;;;;;5030632;28;20109;-64
2023/09/09 11:19:10;;;;;;;9.15;3.38;;;32.60;59.70;;;;;;5029051;28;20025;-65
2023/09/09 11:21:51;;;;;;;9.77;3.08;;;32.50;58.70;;;;;;5026857;28;20076;-66
2023/09/09 11:24:19;;;;;;;13.10;3.35;;;32.50;58.70;;;;;;5032817;28;20109;-66
2023/09/09 11:26:50;;;;;;;13.52;2.88;;;32.50;58.70;;;;;;5032141;28;20710;-66
2023/09/09 11:29:20;;;;;;;5.60;2.70;;;32.40;58.80;;;;;;5027467;28;20091;-66
2023/09/09 11:31:47;;;;;;;4.30;2.40;;;32.40;59.20;;;;;;5030215;28;20029;-66
2023/09/09 11:34:14;;;;;;;5.47;2.58;;;32.30;59.40;;;;;;5034394;28;20030;-67
2023/09/09 11:36:41;;;;;;;12.68;2.75;;;32.30;59.40;;;;;;5031003;28;20013;-65
2023/09/09 11:39:08;;;;;;;5.95;2.72;;;32.20;59.70;;;;;;5031032;28;20025;-66
2023/09/09 11:41:36;;;;;;;9.30;3.03;;;32.20;59.80;;;;;;5041203;28;20040;-65
2023/09/09 11:44:07;;;;;;;10.63;3.22;;;32.20;60.10;;;;;;5045099;28;20398;-65
2023/09/09 11:46:44;;;;;;;7.70;2.60;;;32.10;59.80;;;;;;5049876;28;20041;-64
2023/09/09 11:49:16;;;;;;;;;;;32.00;59.90;;;;;;5034373;28;20071;-65
2023/09/09 11:51:42;;;;;;;6.97;2.92;;;31.90;59.80;;;;;;5034532;28;19905;-65
2023/09/09 11:54:11;;;;;;;7.63;2.88;;;31.80;60.40;;;;;;5035605;28;20021;-64
2023/09/09 11:56:38;;;;;;;10.65;3.00;;;31.80;60.30;;;;;;5037091;28;20550;-66
2023/09/09 11:59:09;;;;;;;5.93;2.70;;;31.70;60.50;;;;;;5039644;28;20036;-65
2023/09/09 12:01:46;;;;;;;8.85;3.13;;;31.70;61.20;;;;;;5034053;28;20029;-64
2023/09/09 12:04:13;;;;;;;10.45;2.90;;;31.70;61.10;;;;;;5037418;28;20045;-66
2023/09/09 12:06:43;;;;;;;7.63;2.83;;;31.70;61.80;;;;;;5033774;28;20026;-65
2023/09/09 12:09:10;;;;;;;14.73;3.00;;;31.60;61.70;;;;;;5032770;28;20032;-65
2023/09/09 12:11:39;;;;;;;5.90;2.75;;;31.60;62.00;;;;;;5039118;28;20078;-64
2023/09/09 12:14:05;;;;;;;8.43;3.75;;;31.50;61.80;;;;;;5038070;28;20353;-64
2023/09/09 12:16:33;;;;;;;5.90;3.20;;;31.50;62.00;;;;;;5030661;28;20021;-64
2023/09/09 12:19:00;;;;;;;7.18;2.80;;;31.50;62.40;;;;;;5033554;28;20029;-65
2023/09/09 12:21:26;;;;;;;11.70;3.60;;;31.50;62.70;;;;;;5029108;28;20171;-66
2023/09/09 12:24:00;;;;;;;11.68;3.35;;;31.50;62.40;;;;;;5040976;28;20045;-63
2023/09/09 12:26:28;;;;;;;11.27;3.28;;;31.50;63.70;;;;;;5032987;28;20013;-64
2023/09/09 12:29:11;;;;;;;9.40;3.25;;;31.50;65.00;;;;;;5039088;28;20012;-67
2023/09/09 12:31:55;;;;;;;6.07;2.92;;;31.40;63.80;;;;;;5037854;28;20017;-65
2023/09/09 12:34:23;;;;;;;6.47;3.35;;;31.40;63.80;;;;;;5034075;28;20414;-64
2023/09/09 12:36:55;;;;;;;8.07;3.08;;;31.40;65.40;;;;;;5035610;28;20071;-64
2023/09/09 12:39:28;;;;;;;10.82;3.50;;;31.40;65.20;;;;;;5036198;28;20021;-67
2023/09/09 12:42:02;;;;;;;5.70;2.85;;;31.40;65.00;;;;;;5038080;28;20025;-65
2023/09/09 12:44:34;;;;;;;9.23;3.38;;;31.30;65.60;;;;;;5037751;28;20013;-66
2023/09/09 12:47:04;;;;;;;12.70;3.50;;;31.30;65.50;;;;;;5040033;28;20021;-68